CSL Niagara — VCGJ — position and weather

sailwx.info

Track history (hours):
 
Tides and Currents Weather Stations Pressure Air Temp Water Temp Dewpoint Dewpoint Depression Visibility Wind Speed Wind Dir Waves Ship Positions

CSL Niagara

ex J. W. McGiffin

Last reported at 2014-Nov-23 09:17 UTC. Time now 2014-Nov-24 16:10 UTC.
Position N 46°02' W 083°53'.

Length 225 m; draft 8.2 m.

Type: Cargo ship. MMSI: 316029000.

Date/timePositionNaut miles runAvg speedWind from/ knotsBaromVisibWave heightAir tempDewpointWater temp
2014-Nov-23 09:17N 46°02' W 083°53'4 3.6
2014-Nov-23 08:04N 45°58' W 083°53'6 8.1
2014-Nov-23 07:22N 45°52' W 083°52'256 5.8
2014-Nov-21 11:08N 42°29' W 080°14'610.4
2014-Nov-21 10:33N 42°30' W 080°06'10 8.7
2014-Nov-21 09:25N 42°34' W 079°54'7 7.8
2014-Nov-21 08:33N 42°37' W 079°46'8 7.5
2014-Nov-21 07:33N 42°41' W 079°37'148 3.4
2014-Nov-19 12:33N 43°59' W 076°45'13 0.3
2014-Nov-17 18:34N 44°02' W 076°28'9 9.2
2014-Nov-17 17:32N 44°09' W 076°20'1010.3
2014-Nov-17 16:34N 44°14' W 076°08'9 8.5
2014-Nov-17 15:33N 44°19' W 075°57'10 9.7
2014-Nov-17 14:33N 44°26' W 075°49'1110.5
2014-Nov-17 13:33N 44°35' W 075°41'57 3.5
2014-Nov-16 21:12N 45°04' W 074°31'5 7.8
2014-Nov-16 20:31N 45°08' W 074°25'9 9.5
2014-Nov-16 19:33N 45°13' W 074°15'8 8.1
2014-Nov-16 18:34N 45°13' W 074°04'7 7.3
2014-Nov-16 17:33N 45°18' W 073°56'1 1.0
2014-Nov-16 16:34N 45°19' W 073°55'0 0.3
2014-Nov-16 15:34N 45°19' W 073°55'2 2.3
2014-Nov-16 14:34N 45°21' W 073°53'5 5.2
2014-Nov-16 13:34N 45°24' W 073°47'5 5.2
2014-Nov-16 12:33N 45°25' W 073°40'4 4.1
2014-Nov-16 11:34N 45°24' W 073°34'2 1.9
2014-Nov-16 10:33N 45°25' W 073°31'5 4.9
2014-Nov-16 09:33N 45°30' W 073°31'1 0.9
2014-Nov-16 08:33N 45°30' W 073°31'4 3.9
2014-Nov-16 07:33N 45°34' W 073°30'7 7.0
2014-Nov-16 06:33N 45°41' W 073°27'8 8.2
2014-Nov-16 05:34N 45°48' W 073°20'8 8.5
2014-Nov-16 04:33N 45°54' W 073°13'8 8.5
2014-Nov-16 03:33N 46°03' W 073°10'9 8.3
2014-Nov-16 02:29N 46°07' W 072°58'8 8.5
2014-Nov-16 01:30N 46°13' W 072°50'9 9.0
2014-Nov-16 00:33N 46°16' W 072°38'5 5.3
2014-Nov-15 23:33N 46°20' W 072°33'0 0.0
2014-Nov-15 22:33N 46°20' W 072°33'0 0.0
2014-Nov-15 21:33N 46°20' W 072°33'0 0.0
2014-Nov-15 20:33N 46°20' W 072°33'0 0.0
2014-Nov-15 19:33N 46°20' W 072°33'0 0.0
2014-Nov-15 18:33N 46°20' W 072°33'0 0.0
2014-Nov-15 15:33N 46°20' W 072°33'0 0.0
2014-Nov-15 14:33N 46°20' W 072°33'0 0.0
2014-Nov-15 13:33N 46°20' W 072°33'0 0.0
2014-Nov-15 12:33N 46°20' W 072°33'0 0.0
2014-Nov-15 11:33N 46°20' W 072°33'0 0.0
2014-Nov-15 10:33N 46°20' W 072°33'0 0.0
2014-Nov-15 09:33N 46°20' W 072°33'0 0.0
2014-Nov-15 08:33N 46°20' W 072°33'0 0.0
2014-Nov-15 07:33N 46°20' W 072°33'0 0.0
2014-Nov-15 06:33N 46°20' W 072°33'0 0.0
2014-Nov-15 05:33N 46°20' W 072°33'0 0.0
2014-Nov-15 04:33N 46°20' W 072°33'0 0.0
2014-Nov-15 03:33N 46°20' W 072°33'0 0.0
2014-Nov-15 02:33N 46°20' W 072°33'0 0.0
2014-Nov-15 01:33N 46°20' W 072°33'0 0.0
2014-Nov-15 00:33N 46°20' W 072°33'0 0.0
2014-Nov-14 23:33N 46°20' W 072°33'0 0.0
2014-Nov-14 22:33N 46°20' W 072°33'0 0.0
2014-Nov-14 21:33N 46°20' W 072°33'1 1.3
2014-Nov-14 20:33N 46°21' W 072°31'8 8.3
2014-Nov-14 19:33N 46°26' W 072°22'8 7.7
2014-Nov-14 18:33N 46°31' W 072°13'8 8.4
2014-Nov-14 17:33N 46°34' W 072°03'5 0.2
2014-Nov-13 22:09N 46°33' W 072°09'712.7
2014-Nov-13 21:34N 46°27' W 072°15'1212.1
2014-Nov-13 20:34N 46°21' W 072°31'1110.6
2014-Nov-13 19:34N 46°15' W 072°44'1211.7
2014-Nov-13 18:32N 46°08' W 072°57'1211.2
2014-Nov-13 17:25N 45°60' W 073°11'1112.2
2014-Nov-13 16:34N 45°50' W 073°17'1212.3
2014-Nov-13 15:33N 45°40' W 073°27'1010.0
2014-Nov-13 14:33N 45°31' W 073°31'1 1.4
2014-Nov-13 13:33N 45°29' W 073°31'0 0.1
2014-Nov-13 12:33N 45°29' W 073°31'4 4.4
2014-Nov-13 11:34N 45°25' W 073°31'2 2.1
2014-Nov-13 10:34N 45°24' W 073°34'3 3.0
2014-Nov-13 09:34N 45°24' W 073°38'  
Track history (hours):
 
Tides and Currents Weather Stations Pressure Air Temp Water Temp Dewpoint Dewpoint Depression Visibility Wind Speed Wind Dir Waves Ship Positions

CSL Niagara

ex J. W. McGiffin

Last reported at 2014-Nov-23 09:17 UTC. Time now 2014-Nov-24 16:10 UTC.
Position N 46°02' W 083°53'.

Length 225 m; draft 8.2 m.

Type: Cargo ship. MMSI: 316029000.

Date/timePositionNaut miles runAvg speedWind from/ knotsBaromVisibWave heightAir tempDewpointWater temp
2014-Nov-23 09:17N 46°02' W 083°53'4 3.6
2014-Nov-23 08:04N 45°58' W 083°53'6 8.1
2014-Nov-23 07:22N 45°52' W 083°52'256 5.8
2014-Nov-21 11:08N 42°29' W 080°14'610.4
2014-Nov-21 10:33N 42°30' W 080°06'10 8.7
2014-Nov-21 09:25N 42°34' W 079°54'7 7.8
2014-Nov-21 08:33N 42°37' W 079°46'8 7.5
2014-Nov-21 07:33N 42°41' W 079°37'148 3.4
2014-Nov-19 12:33N 43°59' W 076°45'13 0.3
2014-Nov-17 18:34N 44°02' W 076°28'9 9.2
2014-Nov-17 17:32N 44°09' W 076°20'1010.3
2014-Nov-17 16:34N 44°14' W 076°08'9 8.5
2014-Nov-17 15:33N 44°19' W 075°57'10 9.7
2014-Nov-17 14:33N 44°26' W 075°49'1110.5
2014-Nov-17 13:33N 44°35' W 075°41'57 3.5
2014-Nov-16 21:12N 45°04' W 074°31'5 7.8
2014-Nov-16 20:31N 45°08' W 074°25'9 9.5
2014-Nov-16 19:33N 45°13' W 074°15'8 8.1
2014-Nov-16 18:34N 45°13' W 074°04'7 7.3
2014-Nov-16 17:33N 45°18' W 073°56'1 1.0
2014-Nov-16 16:34N 45°19' W 073°55'0 0.3
2014-Nov-16 15:34N 45°19' W 073°55'2 2.3
2014-Nov-16 14:34N 45°21' W 073°53'5 5.2
2014-Nov-16 13:34N 45°24' W 073°47'5 5.2
2014-Nov-16 12:33N 45°25' W 073°40'4 4.1
2014-Nov-16 11:34N 45°24' W 073°34'2 1.9
2014-Nov-16 10:33N 45°25' W 073°31'5 4.9
2014-Nov-16 09:33N 45°30' W 073°31'1 0.9
2014-Nov-16 08:33N 45°30' W 073°31'4 3.9
2014-Nov-16 07:33N 45°34' W 073°30'7 7.0
2014-Nov-16 06:33N 45°41' W 073°27'8 8.2
2014-Nov-16 05:34N 45°48' W 073°20'8 8.5
2014-Nov-16 04:33N 45°54' W 073°13'8 8.5
2014-Nov-16 03:33N 46°03' W 073°10'9 8.3
2014-Nov-16 02:29N 46°07' W 072°58'8 8.5
2014-Nov-16 01:30N 46°13' W 072°50'9 9.0
2014-Nov-16 00:33N 46°16' W 072°38'5 5.3
2014-Nov-15 23:33N 46°20' W 072°33'0 0.0
2014-Nov-15 22:33N 46°20' W 072°33'0 0.0
2014-Nov-15 21:33N 46°20' W 072°33'0 0.0
2014-Nov-15 20:33N 46°20' W 072°33'0 0.0
2014-Nov-15 19:33N 46°20' W 072°33'0 0.0
2014-Nov-15 18:33N 46°20' W 072°33'0 0.0
2014-Nov-15 15:33N 46°20' W 072°33'0 0.0
2014-Nov-15 14:33N 46°20' W 072°33'0 0.0
2014-Nov-15 13:33N 46°20' W 072°33'0 0.0
2014-Nov-15 12:33N 46°20' W 072°33'0 0.0
2014-Nov-15 11:33N 46°20' W 072°33'0 0.0
2014-Nov-15 10:33N 46°20' W 072°33'0 0.0
2014-Nov-15 09:33N 46°20' W 072°33'0 0.0
2014-Nov-15 08:33N 46°20' W 072°33'0 0.0
2014-Nov-15 07:33N 46°20' W 072°33'0 0.0
2014-Nov-15 06:33N 46°20' W 072°33'0 0.0
2014-Nov-15 05:33N 46°20' W 072°33'0 0.0
2014-Nov-15 04:33N 46°20' W 072°33'0 0.0
2014-Nov-15 03:33N 46°20' W 072°33'0 0.0
2014-Nov-15 02:33N 46°20' W 072°33'0 0.0
2014-Nov-15 01:33N 46°20' W 072°33'0 0.0
2014-Nov-15 00:33N 46°20' W 072°33'0 0.0
2014-Nov-14 23:33N 46°20' W 072°33'0 0.0
2014-Nov-14 22:33N 46°20' W 072°33'0 0.0
2014-Nov-14 21:33N 46°20' W 072°33'1 1.3
2014-Nov-14 20:33N 46°21' W 072°31'8 8.3
2014-Nov-14 19:33N 46°26' W 072°22'8 7.7
2014-Nov-14 18:33N 46°31' W 072°13'8 8.4
2014-Nov-14 17:33N 46°34' W 072°03'5 0.2
2014-Nov-13 22:09N 46°33' W 072°09'712.7
2014-Nov-13 21:34N 46°27' W 072°15'1212.1
2014-Nov-13 20:34N 46°21' W 072°31'1110.6
2014-Nov-13 19:34N 46°15' W 072°44'1211.7
2014-Nov-13 18:32N 46°08' W 072°57'1211.2
2014-Nov-13 17:25N 45°60' W 073°11'1112.2
2014-Nov-13 16:34N 45°50' W 073°17'1212.3
2014-Nov-13 15:33N 45°40' W 073°27'1010.0
2014-Nov-13 14:33N 45°31' W 073°31'1 1.4
2014-Nov-13 13:33N 45°29' W 073°31'0 0.1
2014-Nov-13 12:33N 45°29' W 073°31'4 4.4
2014-Nov-13 11:34N 45°25' W 073°31'2 2.1
2014-Nov-13 10:34N 45°24' W 073°34'3 3.0
2014-Nov-13 09:34N 45°24' W 073°38'  

Dump ship's entire track history